Time;durP1;ratioP1;P1;durP2;ratioP2;P2;SDS_P1;SDS_P2;PMS_P1;PMS_P2;Temp;Humidity;BMP_temperature;BMP_pressure;BME280_temperature;BME280_humidity;BME280_pressure;Samples;Min_cycle;Max_cycle;Signal;HPM_P1;HPM_P2
2023/12/15 00:01:34;;;;;;;34.17;16.90;;;;;;;4.60;100.00;102548.00;4901013;29;21008;-78
2023/12/15 00:04:01;;;;;;;36.33;15.98;;;;;;;4.60;100.00;102551.50;4928349;29;20501;-77
2023/12/15 00:06:29;;;;;;;36.17;13.70;;;;;;;4.60;100.00;102546.25;4915453;29;20043;-77
2023/12/15 00:08:56;;;;;;;41.85;16.42;;;;;;;4.61;100.00;102547.16;4918592;29;20047;-78
2023/12/15 00:11:24;;;;;;;39.00;16.88;;;;;;;4.61;100.00;102557.59;4917890;29;20068;-78
2023/12/15 00:13:52;;;;;;;44.63;16.73;;;;;;;4.61;100.00;102552.38;4897756;28;20692;-77
2023/12/15 00:16:20;;;;;;;46.30;17.17;;;;;;;4.62;100.00;102562.03;4890439;29;20055;-77
2023/12/15 00:18:47;;;;;;;43.05;17.48;;;;;;;4.62;100.00;102569.84;4919973;29;20051;-78
2023/12/15 00:21:16;;;;;;;41.40;16.92;;;;;;;4.61;100.00;102561.13;4937348;28;20050;-78
2023/12/15 00:23:44;;;;;;;38.60;18.20;;;;;;;4.62;100.00;102564.63;4897053;28;20059;-77
2023/12/15 00:26:11;;;;;;;42.08;17.35;;;;;;;4.61;100.00;102558.53;4874811;29;20051;-77
2023/12/15 00:28:39;;;;;;;43.47;17.50;;;;;;;4.63;100.00;102564.72;4873250;29;20059;-78
2023/12/15 00:31:06;;;;;;;42.22;19.13;;;;;;;4.64;100.00;102568.22;4914171;29;20071;-78
2023/12/15 00:33:34;;;;;;;41.63;17.85;;;;;;;4.64;100.00;102573.44;4934129;29;20047;-78
2023/12/15 00:36:02;;;;;;;37.53;17.77;;;;;;;4.64;100.00;102569.13;4883307;29;20052;-79
2023/12/15 00:38:29;;;;;;;47.95;18.58;;;;;;;4.66;100.00;102571.81;4932453;29;20050;-78
2023/12/15 00:40:57;;;;;;;40.92;18.42;;;;;;;4.65;100.00;102570.94;4922822;29;20058;-79
2023/12/15 00:43:24;;;;;;;48.95;18.08;;;;;;;4.68;100.00;102570.19;4885293;29;20050;-76
2023/12/15 00:45:51;;;;;;;42.50;19.15;;;;;;;4.68;100.00;102576.31;4897553;29;20047;-78
2023/12/15 00:48:19;;;;;;;42.05;17.67;;;;;;;4.69;100.00;102562.44;4918185;29;20058;-77
2023/12/15 00:50:46;;;;;;;46.35;18.10;;;;;;;4.71;100.00;102569.44;4900159;29;20059;-77
2023/12/15 00:53:14;;;;;;;43.53;19.00;;;;;;;4.71;100.00;102575.59;4896838;29;20055;-78
2023/12/15 00:55:43;;;;;;;47.20;18.67;;;;;;;4.73;100.00;102578.28;4929874;29;20429;-77
2023/12/15 00:58:11;;;;;;;45.10;17.45;;;;;;;4.73;100.00;102580.91;4876822;28;20039;-78
2023/12/15 01:00:38;;;;;;;46.72;18.98;;;;;;;4.74;100.00;102582.69;4931475;29;20067;-77
2023/12/15 01:03:06;;;;;;;45.75;18.55;;;;;;;4.75;100.00;102579.28;4922938;29;20039;-78
2023/12/15 01:05:33;;;;;;;46.03;18.17;;;;;;;4.76;100.00;102589.78;4904360;29;20078;-78
2023/12/15 01:08:01;;;;;;;40.35;17.95;;;;;;;4.76;100.00;102595.00;4925926;29;20082;-78
2023/12/15 01:10:29;;;;;;;50.22;19.02;;;;;;;4.78;100.00;102600.31;4916951;29;20055;-78
2023/12/15 01:12:56;;;;;;;59.40;18.48;;;;;;;4.79;100.00;102597.78;4919589;29;20058;-78
2023/12/15 01:15:25;;;;;;;44.15;20.10;;;;;;;4.81;100.00;102603.09;4856765;29;20421;-79
2023/12/15 01:17:52;;;;;;;46.70;19.17;;;;;;;4.83;100.00;102617.16;4903280;29;20421;-77
2023/12/15 01:20:23;;;;;;;47.55;19.55;;;;;;;4.83;100.00;102618.03;4910284;29;20425;-78
2023/12/15 01:22:51;;;;;;;40.10;18.75;;;;;;;4.84;100.00;102622.47;4923710;29;20046;-77
2023/12/15 01:25:18;;;;;;;47.80;19.50;;;;;;;4.86;100.00;102630.38;4901840;29;20054;-77
2023/12/15 01:27:46;;;;;;;38.53;17.83;;;;;;;4.87;100.00;102625.22;4925005;29;20505;-79
2023/12/15 01:30:14;;;;;;;45.55;19.58;;;;;;;4.89;100.00;102610.53;4859843;29;20059;-77
2023/12/15 01:32:43;;;;;;;42.67;19.20;;;;;;;4.91;100.00;102614.94;4925265;29;20039;-78
2023/12/15 01:35:10;;;;;;;49.08;19.75;;;;;;;4.93;100.00;102614.22;4901056;28;20058;-78
2023/12/15 01:37:38;;;;;;;45.40;19.67;;;;;;;4.93;100.00;102629.00;4878246;29;20047;-78
2023/12/15 01:40:07;;;;;;;46.05;19.85;;;;;;;4.94;100.00;102623.84;4939430;28;20061;-78
2023/12/15 01:42:34;;;;;;;51.30;19.52;;;;;;;4.96;100.00;102630.06;4951002;29;20039;-77
2023/12/15 01:45:02;;;;;;;50.03;19.20;;;;;;;4.95;100.00;102627.34;4939429;29;20047;-78
2023/12/15 01:47:31;;;;;;;49.55;19.40;;;;;;;4.98;100.00;102645.81;4874552;29;20051;-78
2023/12/15 01:49:58;;;;;;;41.55;18.60;;;;;;;4.98;100.00;102644.09;4930812;29;20063;-77
2023/12/15 01:52:27;;;;;;;46.25;19.90;;;;;;;4.99;100.00;102632.84;4925058;29;20039;-77
2023/12/15 01:54:54;;;;;;;45.58;18.60;;;;;;;5.00;100.00;102642.47;4916376;29;20054;-78
2023/12/15 01:57:21;;;;;;;41.13;18.67;;;;;;;5.03;100.00;102649.59;4927275;29;20117;-78
2023/12/15 01:59:49;;;;;;;46.08;20.02;;;;;;;5.03;100.00;102647.88;4919050;28;20044;-77
2023/12/15 02:02:17;;;;;;;49.85;19.17;;;;;;;5.04;100.00;102649.66;4888272;29;20055;-78
2023/12/15 02:04:46;;;;;;;45.22;18.45;;;;;;;5.05;100.00;102661.94;4917717;29;20107;-78
2023/12/15 02:07:14;;;;;;;43.67;18.52;;;;;;;5.06;100.00;102658.47;4908298;29;20058;-77
2023/12/15 02:09:41;;;;;;;47.25;19.63;;;;;;;5.07;100.00;102665.50;4914560;29;20436;-78
2023/12/15 02:12:09;;;;;;;49.53;18.50;;;;;;;5.10;100.00;102667.38;4885580;29;20051;-76
2023/12/15 02:14:36;;;;;;;50.47;19.42;;;;;;;5.10;100.00;102685.69;4904890;29;22711;-77
2023/12/15 02:17:03;;;;;;;45.28;19.50;;;;;;;5.12;100.00;102694.50;4893998;29;20054;-77
2023/12/15 02:19:32;;;;;;;43.63;18.85;;;;;;;5.12;100.00;102675.31;4915724;29;20066;-78
2023/12/15 02:21:59;;;;;;;51.22;20.02;;;;;;;5.14;100.00;102677.22;4931821;29;20043;-78
2023/12/15 02:24:27;;;;;;;48.90;19.55;;;;;;;5.15;100.00;102675.50;4904101;29;20385;-77
2023/12/15 02:26:55;;;;;;;45.70;19.48;;;;;;;5.16;100.00;102675.59;4898769;29;20405;-78
2023/12/15 02:29:23;;;;;;;49.47;19.38;;;;;;;5.17;100.00;102679.97;4873528;29;20054;-77
2023/12/15 02:31:50;;;;;;;56.63;19.85;;;;;;;5.19;100.00;102685.31;4875562;29;20504;-77
2023/12/15 02:34:18;;;;;;;54.38;21.42;;;;;;;5.21;100.00;102681.06;4912514;29;20032;-78
2023/12/15 02:36:46;;;;;;;59.65;21.00;;;;;;;5.22;100.00;102678.53;4928589;29;20075;-77
2023/12/15 02:39:13;;;;;;;64.65;21.17;;;;;;;5.23;100.00;102677.69;4917790;29;20413;-77
2023/12/15 02:41:44;;;;;;;50.65;20.00;;;;;;;5.26;100.00;102680.47;4890842;29;20043;-78
2023/12/15 02:44:11;;;;;;;57.53;21.70;;;;;;;5.29;100.00;102674.50;4915872;29;20051;-77
2023/12/15 02:46:39;;;;;;;54.05;19.80;;;;;;;5.31;100.00;102685.94;4921456;28;20092;-78
2023/12/15 02:49:08;;;;;;;64.22;20.88;;;;;;;5.32;100.00;102689.47;4857578;29;20052;-77
2023/12/15 02:51:35;;;;;;;64.45;20.38;;;;;;;5.32;100.00;102703.44;4928981;29;20150;-78
2023/12/15 02:54:03;;;;;;;59.85;20.25;;;;;;;5.34;100.00;102706.16;4920991;29;20055;-78
2023/12/15 02:56:32;;;;;;;59.47;18.58;;;;;;;5.35;100.00;102702.69;4892446;29;20047;-78
2023/12/15 02:58:59;;;;;;;54.13;19.67;;;;;;;5.35;100.00;102698.41;4884568;29;20059;-78
2023/12/15 03:01:27;;;;;;;56.15;18.63;;;;;;;5.34;100.00;102699.19;4908147;29;20158;-77
2023/12/15 03:03:54;;;;;;;53.35;19.60;;;;;;;5.34;100.00;102703.53;4852575;29;20047;-77
2023/12/15 03:06:22;;;;;;;58.38;19.80;;;;;;;5.34;100.00;102699.19;4919023;29;20048;-77
2023/12/15 03:08:49;;;;;;;65.35;18.08;;;;;;;5.34;100.00;102700.91;4932412;29;20051;-78
2023/12/15 03:11:17;;;;;;;58.58;18.00;;;;;;;5.34;100.00;102699.19;4920971;29;20725;-78
2023/12/15 03:13:44;;;;;;;63.20;19.55;;;;;;;5.36;100.00;102710.63;4902222;29;20047;-78
2023/12/15 03:16:12;;;;;;;63.63;19.90;;;;;;;5.37;100.00;102701.06;4924432;29;20043;-79
2023/12/15 03:18:39;;;;;;;70.63;20.45;;;;;;;5.37;100.00;102698.44;4878190;29;20044;-77
2023/12/15 03:21:07;;;;;;;60.05;19.15;;;;;;;5.37;100.00;102696.75;4948073;28;20062;-77
2023/12/15 03:23:34;;;;;;;63.25;19.17;;;;;;;5.36;100.00;102702.78;4914978;29;20055;-78
2023/12/15 03:26:02;;;;;;;55.40;19.15;;;;;;;5.36;100.00;102701.91;4915267;29;20462;-77
2023/12/15 03:28:29;;;;;;;57.15;18.67;;;;;;;5.36;100.00;102708.03;4912844;29;20074;-78
2023/12/15 03:30:57;;;;;;;60.60;18.30;;;;;;;5.36;100.00;102710.63;4902159;29;20057;-78
2023/12/15 03:33:28;;;;;;;53.03;19.55;;;;;;;5.36;100.00;102713.25;4903348;29;20047;-78
2023/12/15 03:35:55;;;;;;;53.63;20.35;;;;;;;5.37;100.00;102719.38;4864380;29;20417;-78
2023/12/15 03:38:22;;;;;;;62.13;20.65;;;;;;;5.37;100.00;102725.53;4926465;29;20627;-78
2023/12/15 03:40:50;;;;;;;57.35;20.05;;;;;;;5.37;100.00;102721.97;4909000;29;20047;-77
2023/12/15 03:43:18;;;;;;;65.30;20.42;;;;;;;5.36;100.00;102725.44;4903163;29;20042;-77
2023/12/15 03:45:47;;;;;;;60.95;21.15;;;;;;;5.33;100.00;102720.03;4891697;29;20540;-77
2023/12/15 03:48:16;;;;;;;61.50;20.88;;;;;;;5.30;100.00;102723.38;4921001;29;20058;-78
2023/12/15 03:50:43;;;;;;;65.47;20.75;;;;;;;5.25;100.00;102728.38;4892294;29;20051;-78
2023/12/15 03:53:11;;;;;;;65.50;19.80;;;;;;;5.22;100.00;102732.53;4914018;29;20051;-77
2023/12/15 03:55:39;;;;;;;60.50;20.05;;;;;;;5.17;100.00;102747.03;4930198;29;20063;-77
2023/12/15 03:58:07;;;;;;;61.03;20.30;;;;;;;5.12;100.00;102735.44;4926008;28;20408;-79
2023/12/15 04:00:34;;;;;;;62.13;20.42;;;;;;;5.10;100.00;102739.66;4905300;29;20118;-77
2023/12/15 04:03:01;;;;;;;59.25;20.02;;;;;;;5.04;100.00;102748.06;4949759;29;20054;-77
2023/12/15 04:05:29;;;;;;;54.22;20.63;;;;;;;5.02;100.00;102747.09;4899373;29;20047;-78
2023/12/15 04:07:56;;;;;;;58.72;20.48;;;;;;;4.98;100.00;102742.50;4890951;29;20051;-78
2023/12/15 04:10:24;;;;;;;50.45;19.38;;;;;;;4.96;100.00;102747.63;4926144;29;20052;-77
2023/12/15 04:12:51;;;;;;;67.63;20.17;;;;;;;4.93;100.00;102743.94;4924884;28;20493;-77
2023/12/15 04:15:19;;;;;;;52.38;20.38;;;;;;;4.89;100.00;102748.97;4925737;29;20052;-78
2023/12/15 04:17:46;;;;;;;53.28;20.40;;;;;;;4.88;100.00;102748.94;4909018;29;20067;-79
2023/12/15 04:20:15;;;;;;;52.05;20.08;;;;;;;4.85;100.00;102753.97;4925542;29;20047;-78
2023/12/15 04:22:42;;;;;;;59.50;20.80;;;;;;;4.81;100.00;102752.88;4869039;29;20531;-77
2023/12/15 04:25:09;;;;;;;55.72;20.45;;;;;;;4.76;100.00;102756.94;4911231;29;20047;-77
2023/12/15 04:27:37;;;;;;;58.05;21.95;;;;;;;4.73;100.00;102753.28;4940718;28;20058;-78
2023/12/15 04:30:07;;;;;;;52.72;19.48;;;;;;;4.68;100.00;102761.72;4925313;29;20133;-78
2023/12/15 04:32:35;;;;;;;59.25;21.08;;;;;;;4.64;100.00;102759.75;4921182;29;20047;-79
2023/12/15 04:35:02;;;;;;;65.47;21.70;;;;;;;4.60;100.00;102760.38;4908224;29;20063;-78
2023/12/15 04:37:30;;;;;;;49.25;20.67;;;;;;;4.58;100.00;102768.94;4876668;29;20035;-77
2023/12/15 04:39:57;;;;;;;57.42;20.98;;;;;;;4.56;100.00;102775.78;4907492;29;20417;-77
2023/12/15 04:42:25;;;;;;;54.08;20.23;;;;;;;4.53;100.00;102776.50;4882986;29;20054;-77
2023/12/15 04:44:52;;;;;;;59.58;20.17;;;;;;;4.48;100.00;102773.63;4911320;29;20062;-77
2023/12/15 04:47:19;;;;;;;52.55;20.02;;;;;;;4.48;100.00;102785.78;4933778;29;20051;-77
2023/12/15 04:49:47;;;;;;;61.42;21.25;;;;;;;4.45;100.00;102794.31;4907268;29;20260;-78
2023/12/15 04:52:14;;;;;;;64.18;20.92;;;;;;;4.45;100.00;102790.81;4848323;29;20046;-77
2023/12/15 04:54:42;;;;;;;58.28;20.30;;;;;;;4.45;100.00;102791.72;4930189;29;20059;-77
2023/12/15 04:57:09;;;;;;;55.22;20.77;;;;;;;4.47;100.00;102800.53;4931820;29;20055;-78
2023/12/15 04:59:39;;;;;;;62.33;20.77;;;;;;;4.48;100.00;102801.47;4905090;29;20043;-77
2023/12/15 05:02:08;;;;;;;68.82;22.00;;;;;;;4.47;100.00;102807.47;4874679;28;20417;-79
2023/12/15 05:04:35;;;;;;;65.32;22.27;;;;;;;4.45;100.00;102804.75;4925691;29;20047;-77
2023/12/15 05:07:06;;;;;;;60.58;20.50;;;;;;;4.45;100.00;102806.47;4861788;29;20051;-77
2023/12/15 05:09:33;;;;;;;60.42;20.23;;;;;;;4.43;100.00;102808.09;4930365;29;20062;-77
2023/12/15 05:12:01;;;;;;;65.45;19.83;;;;;;;4.42;100.00;102811.50;4909342;29;20421;-78
2023/12/15 05:14:29;;;;;;;51.15;18.75;;;;;;;4.40;100.00;102806.19;4877897;29;20043;-78
2023/12/15 05:16:56;;;;;;;60.03;19.50;;;;;;;4.40;100.00;102813.13;4925238;29;20047;-78
2023/12/15 05:19:24;;;;;;;62.72;20.17;;;;;;;4.40;100.00;102815.75;4901023;29;20059;-77
2023/12/15 05:21:52;;;;;;;52.40;18.67;;;;;;;4.37;100.00;102826.03;4879579;29;20358;-77
2023/12/15 05:24:20;;;;;;;54.80;17.92;;;;;;;4.38;100.00;102817.38;4896525;29;20036;-78
2023/12/15 05:26:47;;;;;;;54.85;17.67;;;;;;;4.37;100.00;102829.53;4915762;29;20051;-78
2023/12/15 05:29:14;;;;;;;52.17;18.08;;;;;;;4.40;100.00;102823.56;4920923;29;20055;-78
2023/12/15 05:31:45;;;;;;;51.92;17.67;;;;;;;4.41;100.00;102838.44;4931566;29;20054;-78
2023/12/15 05:34:12;;;;;;;62.17;18.17;;;;;;;4.41;100.00;102841.06;4894879;29;20135;-77
2023/12/15 05:36:40;;;;;;;48.45;18.13;;;;;;;4.42;100.00;102838.53;4913335;29;20486;-77
2023/12/15 05:39:08;;;;;;;53.00;17.40;;;;;;;4.45;100.00;102832.59;4869718;29;20060;-77
2023/12/15 05:41:41;;;;;;;50.17;16.75;;;;;;;4.46;100.00;102829.16;4940979;29;20055;-78
2023/12/15 05:44:11;;;;;;;49.60;17.38;;;;;;;4.47;100.00;102836.19;4915665;29;20051;-77
2023/12/15 05:46:42;;;;;;;56.80;16.63;;;;;;;4.46;100.00;102852.66;4931405;29;20054;-77
2023/12/15 05:49:10;;;;;;;;;;;;;;;4.44;100.00;102852.59;4904742;29;20136;-77
2023/12/15 05:51:38;;;;;;;43.33;15.80;;;;;;;4.42;100.00;102863.72;4906450;29;19953;-77
2023/12/15 05:54:06;;;;;;;52.03;16.50;;;;;;;4.40;100.00;102862.72;4897977;29;20055;-79
2023/12/15 05:56:33;;;;;;;55.75;15.75;;;;;;;4.40;100.00;102871.44;4884231;29;20051;-78
2023/12/15 05:59:01;;;;;;;41.50;15.38;;;;;;;4.40;100.00;102874.06;4929947;29;20051;-77
2023/12/15 06:01:28;;;;;;;45.25;15.43;;;;;;;4.39;100.00;102869.66;4941152;29;20040;-78
2023/12/15 06:03:57;;;;;;;40.90;14.52;;;;;;;4.37;100.00;102857.34;4913973;29;20056;-77
2023/12/15 06:06:24;;;;;;;40.20;14.68;;;;;;;4.34;100.00;102858.03;4897074;29;20051;-78
2023/12/15 06:08:52;;;;;;;52.58;14.82;;;;;;;4.30;100.00;102859.56;4902023;29;20050;-77
2023/12/15 06:11:19;;;;;;;43.83;14.30;;;;;;;4.25;100.00;102858.41;4893539;29;20953;-77
2023/12/15 06:13:47;;;;;;;42.75;13.77;;;;;;;4.21;100.00;102864.22;4944793;29;20055;-77
2023/12/15 06:16:18;;;;;;;40.72;15.20;;;;;;;4.17;100.00;102870.06;4925781;28;20050;-77
2023/12/15 06:18:46;;;;;;;42.65;13.88;;;;;;;4.14;100.00;102877.72;4929780;29;20394;-77
2023/12/15 06:21:25;;;;;;;43.00;14.45;;;;;;;4.09;100.00;102879.13;4906622;29;20055;-77
2023/12/15 06:23:54;;;;;;;37.63;13.80;;;;;;;4.06;100.00;102884.13;4930608;29;20055;-78
2023/12/15 06:26:23;;;;;;;46.55;14.50;;;;;;;4.05;100.00;102892.78;4879052;29;20034;-78
2023/12/15 06:28:51;;;;;;;34.30;13.00;;;;;;;4.03;100.00;102905.72;4913886;29;20158;-78
2023/12/15 06:31:19;;;;;;;43.28;14.07;;;;;;;4.04;100.00;102904.91;4917263;29;20059;-78
2023/12/15 06:33:46;;;;;;;51.15;14.38;;;;;;;4.07;100.00;102922.50;4929885;29;20516;-77
2023/12/15 06:36:14;;;;;;;45.30;14.98;;;;;;;4.10;100.00;102917.44;4911091;29;20409;-77
2023/12/15 06:38:45;;;;;;;41.10;13.80;;;;;;;4.14;100.00;102906.41;4895876;28;20043;-76
2023/12/15 06:41:13;;;;;;;41.92;14.13;;;;;;;4.17;100.00;102921.34;4857896;29;20054;-77
2023/12/15 06:43:45;;;;;;;49.97;13.38;;;;;;;4.18;100.00;102910.09;4936403;28;20074;-77
2023/12/15 06:46:12;;;;;;;60.38;14.18;;;;;;;4.21;100.00;102921.63;4904095;29;20091;-77
2023/12/15 06:48:40;;;;;;;54.08;13.90;;;;;;;4.24;100.00;102920.94;4913908;29;20047;-78
2023/12/15 06:51:08;;;;;;;39.53;13.35;;;;;;;4.28;100.00;102925.53;4903353;29;20152;-78
2023/12/15 06:53:37;;;;;;;40.13;12.70;;;;;;;4.30;100.00;102932.63;4917057;29;20047;-78
2023/12/15 06:56:04;;;;;;;41.63;13.07;;;;;;;4.34;100.00;102928.50;4843731;29;21228;-77
2023/12/15 06:58:32;;;;;;;50.17;12.45;;;;;;;4.36;100.00;102921.69;4883033;29;20051;-79
2023/12/15 07:01:00;;;;;;;43.08;12.57;;;;;;;4.37;100.00;102930.44;4894176;29;20044;-80
2023/12/15 07:03:28;;;;;;;35.63;12.70;;;;;;;4.36;100.00;102926.00;4906614;29;20046;-78
2023/12/15 07:05:56;;;;;;;50.17;15.30;;;;;;;4.35;100.00;102919.88;4900128;29;20422;-78
2023/12/15 07:08:24;;;;;;;51.47;13.45;;;;;;;4.30;100.00;102914.38;4911903;29;20060;-76
2023/12/15 07:10:51;;;;;;;51.45;12.60;;;;;;;4.27;100.00;102916.81;4873638;28;20062;-78
2023/12/15 07:13:19;;;;;;;48.20;12.80;;;;;;;4.25;100.00;102923.66;4847549;29;20510;-78
2023/12/15 07:15:46;;;;;;;43.42;13.32;;;;;;;4.24;100.00;102924.44;4938064;29;20043;-78
2023/12/15 07:18:13;;;;;;;45.95;11.32;;;;;;;4.24;100.00;102921.81;4914649;29;20543;-76
2023/12/15 07:20:41;;;;;;;41.80;11.52;;;;;;;4.29;100.00;102929.94;4883637;29;20055;-78
2023/12/15 07:23:08;;;;;;;45.45;11.95;;;;;;;4.32;100.00;102940.56;4899670;29;20059;-76
2023/12/15 07:25:37;;;;;;;43.40;12.70;;;;;;;4.36;100.00;102939.06;4885147;29;20039;-77
2023/12/15 07:28:05;;;;;;;41.38;11.82;;;;;;;4.41;100.00;102961.13;4873711;29;20058;-78
2023/12/15 07:30:32;;;;;;;38.88;11.10;;;;;;;4.45;100.00;102963.13;4926901;29;20532;-78
2023/12/15 07:33:00;;;;;;;48.13;10.88;;;;;;;4.50;100.00;102977.38;4901211;28;20781;-77
2023/12/15 07:35:27;;;;;;;42.47;12.85;;;;;;;4.54;100.00;102965.38;4907962;29;20430;-76
2023/12/15 07:37:59;;;;;;;44.22;11.68;;;;;;;4.57;100.00;102965.59;4939922;28;20409;-77
2023/12/15 07:40:27;;;;;;;44.92;11.43;;;;;;;4.61;100.00;102975.41;4900422;29;20082;-77
2023/12/15 07:42:55;;;;;;;39.63;11.20;;;;;;;4.64;100.00;102983.44;4893277;29;20500;-77
2023/12/15 07:45:22;;;;;;;31.55;10.60;;;;;;;4.67;100.00;102992.38;4921238;29;20039;-77
2023/12/15 07:47:50;;;;;;;38.08;10.88;;;;;;;4.71;100.00;102998.69;4904417;29;20162;-76
2023/12/15 07:50:18;;;;;;;44.85;10.65;;;;;;;4.72;100.00;103010.91;4946746;28;20062;-77
2023/12/15 07:52:46;;;;;;;42.25;10.32;;;;;;;4.75;100.00;103016.34;4913723;29;20054;-79
2023/12/15 07:55:14;;;;;;;37.63;9.15;;;;;;;4.76;100.00;103022.47;4917046;29;20050;-77
2023/12/15 07:57:42;;;;;;;40.83;11.32;;;;;;;4.77;100.00;103025.19;4881313;29;20047;-77
2023/12/15 08:00:11;;;;;;;43.08;10.60;;;;;;;4.80;100.00;103033.22;4901607;29;20061;-77
2023/12/15 08:02:39;;;;;;;43.30;9.80;;;;;;;4.84;100.00;103042.16;4911316;29;20057;-77
2023/12/15 08:05:07;;;;;;;52.58;9.90;;;;;;;4.87;100.00;103042.31;4896900;29;20059;-77
2023/12/15 08:07:35;;;;;;;51.20;10.32;;;;;;;4.90;100.00;103042.53;4925866;29;20047;-77
2023/12/15 08:10:02;;;;;;;53.72;11.38;;;;;;;4.95;100.00;103048.00;4936405;29;20051;-77
2023/12/15 08:12:30;;;;;;;42.30;10.70;;;;;;;4.98;100.00;103046.50;4895941;29;20058;-77
2023/12/15 08:14:57;;;;;;;40.28;9.63;;;;;;;5.01;100.00;103051.00;4922613;29;20496;-77
2023/12/15 08:17:25;;;;;;;41.95;11.18;;;;;;;5.03;100.00;103060.75;4926577;29;20055;-77
2023/12/15 08:19:52;;;;;;;35.80;10.27;;;;;;;5.02;100.00;103051.09;4919976;29;20043;-77
2023/12/15 08:22:20;;;;;;;53.25;10.48;;;;;;;5.04;100.00;103072.09;4884196;29;20055;-77
2023/12/15 08:24:48;;;;;;;39.53;9.20;;;;;;;5.04;100.00;103066.88;4936933;28;20042;-77
2023/12/15 08:27:20;;;;;;;48.58;11.02;;;;;;;5.04;100.00;103061.66;4891559;29;20047;-77
2023/12/15 08:29:48;;;;;;;41.65;9.88;;;;;;;5.03;100.00;103065.09;4904153;29;20913;-77
2023/12/15 08:32:16;;;;;;;43.50;10.85;;;;;;;5.04;100.00;103064.25;4892239;29;20043;-77
2023/12/15 08:34:46;;;;;;;44.90;10.85;;;;;;;5.06;100.00;103068.75;4903355;29;20058;-78
2023/12/15 08:37:14;;;;;;;35.87;10.50;;;;;;;5.08;100.00;103066.25;4893132;29;20050;-78
2023/12/15 08:39:42;;;;;;;48.97;10.15;;;;;;;5.12;100.00;103077.78;4886554;29;20791;-77
2023/12/15 08:42:09;;;;;;;40.63;9.45;;;;;;;5.16;100.00;103085.00;4884182;29;20050;-77
2023/12/15 08:44:38;;;;;;;42.80;8.65;;;;;;;5.21;100.00;103088.81;4872466;28;20058;-77
2023/12/15 08:47:07;;;;;;;42.65;8.55;;;;;;;5.24;100.00;103105.59;4904961;29;20055;-77
2023/12/15 08:49:35;;;;;;;32.63;9.10;;;;;;;5.29;100.00;103105.84;4915246;29;20058;-76
2023/12/15 08:52:02;;;;;;;43.08;9.23;;;;;;;5.33;100.00;103114.78;4887383;29;20454;-76
2023/12/15 08:54:30;;;;;;;25.90;8.07;;;;;;;5.38;100.00;103114.25;4922868;29;20059;-77
2023/12/15 08:56:57;;;;;;;32.88;9.18;;;;;;;5.41;100.00;103111.84;4904722;29;20047;-77
2023/12/15 08:59:25;;;;;;;41.55;8.77;;;;;;;5.48;100.00;103118.34;4884261;29;20058;-78
2023/12/15 09:01:52;;;;;;;32.20;7.35;;;;;;;5.53;100.00;103113.41;4933897;29;20051;-77
2023/12/15 09:04:19;;;;;;;33.72;8.00;;;;;;;5.57;100.00;103121.50;4870579;29;20051;-75
2023/12/15 09:06:47;;;;;;;37.47;8.20;;;;;;;5.60;100.00;103140.00;4884988;29;20047;-76
2023/12/15 09:09:21;;;;;;;43.72;9.25;;;;;;;5.64;100.00;103133.25;4896767;29;20085;-76
2023/12/15 09:11:49;;;;;;;31.80;6.55;;;;;;;5.68;100.00;103137.84;4906238;29;20055;-76
2023/12/15 09:14:17;;;;;;;42.20;7.35;;;;;;;5.70;100.00;103141.47;4891104;28;20054;-77
2023/12/15 09:16:47;;;;;;;28.00;5.65;;;;;;;5.70;100.00;103151.94;4930468;29;20046;-76
2023/12/15 09:19:14;;;;;;;38.90;5.97;;;;;;;5.72;100.00;103147.69;4910379;29;20055;-76
2023/12/15 09:21:42;;;;;;;41.25;6.97;;;;;;;5.72;100.00;103152.91;4918735;29;20055;-76
2023/12/15 09:24:09;;;;;;;41.63;7.10;;;;;;;5.72;100.00;103158.16;4909064;29;20054;-76
2023/12/15 09:26:38;;;;;;;24.00;5.00;;;;;;;5.73;100.00;103167.81;4902933;29;20074;-76
2023/12/15 09:29:06;;;;;;;36.95;6.03;;;;;;;5.75;100.00;103170.53;4848251;29;20059;-76
2023/12/15 09:31:34;;;;;;;30.15;5.80;;;;;;;5.76;100.00;103173.22;4921047;28;20055;-76
2023/12/15 09:34:01;;;;;;;31.85;6.97;;;;;;;5.77;100.00;103176.75;4934798;29;20062;-77
2023/12/15 09:36:30;;;;;;;29.17;5.40;;;;;;;5.77;100.00;103175.03;4933887;28;20058;-77
2023/12/15 09:38:58;;;;;;;39.42;5.90;;;;;;;5.79;100.00;103182.97;4913191;29;20433;-77
2023/12/15 09:41:29;;;;;;;34.67;5.18;;;;;;;5.81;100.00;103179.63;4903335;29;20055;-76
2023/12/15 09:43:56;;;;;;;22.02;4.63;;;;;;;5.85;100.00;103180.72;4934731;29;20054;-76
2023/12/15 09:46:24;;;;;;;28.20;5.57;;;;;;;5.88;100.00;103187.84;4869083;29;20055;-76
2023/12/15 09:48:52;;;;;;;34.92;5.88;;;;;;;5.89;100.00;103190.56;4919231;29;20488;-76
2023/12/15 09:51:23;;;;;;;32.00;5.85;;;;;;;5.91;100.00;103196.78;4926407;29;20055;-77
2023/12/15 09:53:52;;;;;;;32.13;6.47;;;;;;;5.92;100.00;103203.84;4917648;29;20062;-77
2023/12/15 09:56:19;;;;;;;31.88;6.20;;;;;;;5.93;100.00;103205.63;4906720;29;20461;-77
2023/12/15 09:58:47;;;;;;;24.13;6.20;;;;;;;5.96;100.00;103212.81;4876108;29;20047;-77
2023/12/15 10:01:15;;;;;;;33.30;5.53;;;;;;;5.98;100.00;103219.03;4870960;29;20047;-76
2023/12/15 10:03:42;;;;;;;27.00;5.30;;;;;;;6.00;100.00;103230.50;4925832;29;20047;-77
2023/12/15 10:06:09;;;;;;;31.25;5.18;;;;;;;6.03;100.00;103220.19;4925310;29;20050;-77
2023/12/15 10:08:42;;;;;;;30.50;5.40;;;;;;;6.06;100.00;103217.78;4901403;29;20054;-76
2023/12/15 10:11:32;;;;;;;32.58;5.38;;;;;;;6.12;100.00;103214.63;4940313;29;20454;-77
2023/12/15 10:14:07;;;;;;;36.28;6.72;;;;;;;6.15;100.00;103215.72;4912472;29;20078;-76
2023/12/15 10:16:37;;;;;;;19.70;5.43;;;;;;;6.19;100.00;103204.59;4874153;29;20039;-76
2023/12/15 10:19:05;;;;;;;24.70;5.82;;;;;;;6.22;100.00;103199.56;4930572;29;20058;-77
2023/12/15 10:21:35;;;;;;;28.05;5.28;;;;;;;6.26;100.00;103205.88;4947371;29;20039;-77
2023/12/15 10:24:22;;;;;;;25.10;5.07;;;;;;;6.28;100.00;103205.97;4916635;29;20059;-76
2023/12/15 10:26:50;;;;;;;34.47;6.88;;;;;;;6.30;100.00;103204.34;4941747;28;20492;-77
2023/12/15 10:29:21;;;;;;;29.35;5.82;;;;;;;6.31;100.00;103207.03;4923503;28;20125;-76
2023/12/15 10:31:50;;;;;;;30.40;4.93;;;;;;;6.31;100.00;103208.75;4885792;29;20043;-77
2023/12/15 10:34:21;;;;;;;28.35;4.72;;;;;;;6.35;100.00;103219.50;4880019;29;20051;-77
2023/12/15 10:36:48;;;;;;;;;;;;;;;6.38;100.00;103226.63;4928699;29;20058;-77
2023/12/15 10:39:17;;;;;;;18.55;3.47;;;;;;;6.41;100.00;103232.06;4891933;29;19937;-76
2023/12/15 10:41:45;;;;;;;25.50;4.93;;;;;;;6.44;100.00;103237.47;4941164;29;20130;-76
2023/12/15 10:44:13;;;;;;;24.45;4.72;;;;;;;6.48;100.00;103236.81;4915962;29;20051;-76
2023/12/15 10:46:42;;;;;;;25.52;4.85;;;;;;;6.50;100.00;103229.94;4914389;29;20043;-76
2023/12/15 10:49:10;;;;;;;24.52;4.53;;;;;;;6.53;100.00;103230.13;4898370;29;20039;-76
2023/12/15 10:51:39;;;;;;;28.42;5.25;;;;;;;6.56;100.00;103232.94;4916452;29;20414;-76
2023/12/15 10:54:08;;;;;;;27.13;4.72;;;;;;;6.58;100.00;103227.81;4914712;29;20050;-77
2023/12/15 10:56:37;;;;;;;25.67;4.82;;;;;;;6.59;100.00;103227.88;4928107;29;20055;-76
2023/12/15 10:59:06;;;;;;;31.13;4.07;;;;;;;6.58;100.00;103239.19;4913855;29;20051;-76
2023/12/15 11:01:37;;;;;;;26.40;5.25;;;;;;;6.59;100.00;103235.72;4898210;29;20062;-76
2023/12/15 11:04:17;;;;;;;22.25;5.72;;;;;;;6.60;100.00;103242.78;4859500;29;20052;-76
2023/12/15 11:06:46;;;;;;;33.13;4.13;;;;;;;6.62;100.00;103238.53;4915718;29;20468;-76
2023/12/15 11:09:26;;;;;;;38.63;5.78;;;;;;;6.64;100.00;103243.88;4924324;29;20039;-76
2023/12/15 11:12:29;;;;;;;28.75;4.43;;;;;;;6.67;100.00;103244.03;4912927;28;20050;-76
2023/12/15 11:15:02;;;;;;;24.90;4.07;;;;;;;6.70;100.00;103249.44;4912760;29;20044;-76
2023/12/15 11:17:31;;;;;;;27.40;5.00;;;;;;;6.71;100.00;103238.19;4917066;29;20051;-77